Time;durP1;ratioP1;P1;durP2;ratioP2;P2;SDS_P1;SDS_P2;PMS_P1;PMS_P2;Temp;Humidity;BMP_temperature;BMP_pressure;BME280_temperature;BME280_humidity;BME280_pressure;Samples;Min_cycle;Max_cycle;Signal;HPM_P1;HPM_P2
2023/08/21 00:01:18;;;;;;;0.80;0.38;;;14.90;99.90;;;;;;4968196;28;20046;-75
2023/08/21 00:03:44;;;;;;;1.02;0.60;;;14.80;99.90;;;;;;4973316;28;20425;-75
2023/08/21 00:06:10;;;;;;;1.05;0.57;;;14.80;99.90;;;;;;4970639;28;20090;-75
2023/08/21 00:08:36;;;;;;;;;;;14.80;99.90;;;;;;4968336;28;20055;-75
2023/08/21 00:11:01;;;;;;;1.20;0.60;;;14.80;99.90;;;;;;4973364;28;19926;-75
2023/08/21 00:13:27;;;;;;;1.58;1.00;;;14.80;99.90;;;;;;4974643;28;20078;-75
2023/08/21 00:15:55;;;;;;;1.60;1.10;;;14.80;99.90;;;;;;4957019;28;20064;-75
2023/08/21 00:18:21;;;;;;;2.00;1.35;;;14.80;99.90;;;;;;4973127;28;20051;-75
2023/08/21 00:20:46;;;;;;;1.38;1.00;;;14.80;99.90;;;;;;4957031;28;20041;-75
2023/08/21 00:23:12;;;;;;;1.70;1.33;;;14.70;99.90;;;;;;4965032;28;20056;-75
2023/08/21 00:25:38;;;;;;;2.00;1.45;;;14.80;99.90;;;;;;4964511;28;20471;-75
2023/08/21 00:28:04;;;;;;;2.90;1.52;;;14.80;99.90;;;;;;4953802;28;20236;-75
2023/08/21 00:30:29;;;;;;;1.77;1.30;;;14.70;99.90;;;;;;4950009;28;20050;-75
2023/08/21 00:32:55;;;;;;;2.05;1.30;;;14.60;99.90;;;;;;4972923;28;20039;-75
2023/08/21 00:35:21;;;;;;;1.52;1.10;;;14.50;99.90;;;;;;4940846;28;20050;-75
2023/08/21 00:37:47;;;;;;;2.15;1.20;;;14.50;99.90;;;;;;4971925;28;20514;-75
2023/08/21 00:40:13;;;;;;;1.15;0.85;;;14.40;99.90;;;;;;4956802;28;20047;-75
2023/08/21 00:42:39;;;;;;;1.65;1.20;;;14.40;99.90;;;;;;4959261;28;20051;-75
2023/08/21 00:45:08;;;;;;;1.58;0.90;;;14.40;99.90;;;;;;4956655;28;20478;-75
2023/08/21 00:47:34;;;;;;;1.10;0.90;;;14.40;99.90;;;;;;4944690;29;20051;-75
2023/08/21 00:50:00;;;;;;;1.00;0.77;;;14.30;99.90;;;;;;4983177;28;20471;-75
2023/08/21 00:52:26;;;;;;;2.20;0.88;;;14.20;99.90;;;;;;4964124;28;20046;-75
2023/08/21 00:54:52;;;;;;;0.85;0.65;;;14.10;99.90;;;;;;4955711;28;20047;-75
2023/08/21 00:57:20;;;;;;;1.33;0.90;;;14.20;99.90;;;;;;4940566;28;20082;-75
2023/08/21 00:59:46;;;;;;;1.13;0.70;;;14.10;99.90;;;;;;4951943;28;20388;-75
2023/08/21 01:02:12;;;;;;;0.70;0.50;;;14.10;99.90;;;;;;4967027;28;20073;-75
2023/08/21 01:04:38;;;;;;;0.90;0.70;;;14.10;99.90;;;;;;4971677;28;20050;-75
2023/08/21 01:07:09;;;;;;;0.65;0.50;;;14.00;99.90;;;;;;4956399;28;20574;-75
2023/08/21 01:09:48;;;;;;;1.00;0.50;;;14.00;99.90;;;;;;4941621;28;20063;-75
2023/08/21 01:12:36;;;;;;;0.90;0.50;;;14.00;99.90;;;;;;4972022;28;20552;-75
2023/08/21 01:15:07;;;;;;;1.02;0.60;;;14.00;99.90;;;;;;4971943;28;20051;-75
2023/08/21 01:17:37;;;;;;;1.02;0.60;;;14.00;99.90;;;;;;4974590;28;20047;-75
2023/08/21 01:20:06;;;;;;;0.50;0.40;;;14.00;99.90;;;;;;4971915;28;20510;-75
2023/08/21 01:22:37;;;;;;;1.05;0.65;;;14.00;99.90;;;;;;4958777;28;20042;-75
2023/08/21 01:25:05;;;;;;;1.00;0.50;;;14.00;99.90;;;;;;4963940;28;20097;-75
2023/08/21 01:27:31;;;;;;;0.57;0.50;;;14.00;99.90;;;;;;4983887;28;20118;-75
2023/08/21 01:29:57;;;;;;;0.47;0.47;;;13.90;99.90;;;;;;4952454;28;20043;-75
2023/08/21 01:32:59;;;;;;;0.90;0.50;;;13.90;99.90;;;;;;4969916;28;20283;-75
2023/08/21 01:35:26;;;;;;;0.55;0.45;;;13.90;99.90;;;;;;4970387;28;20058;-75
2023/08/21 01:37:52;;;;;;;0.70;0.50;;;13.90;99.90;;;;;;4966884;28;20047;-75
2023/08/21 01:40:22;;;;;;;0.63;0.52;;;13.80;99.90;;;;;;4978391;28;20039;-75
2023/08/21 01:42:48;;;;;;;0.40;0.40;;;13.90;99.90;;;;;;4971809;28;20047;-75
2023/08/21 01:45:14;;;;;;;1.23;0.60;;;13.90;99.90;;;;;;4971299;28;20116;-75
2023/08/21 01:47:39;;;;;;;0.95;0.40;;;13.80;99.90;;;;;;4970043;28;20149;-75
2023/08/21 01:50:06;;;;;;;1.25;0.55;;;13.80;99.90;;;;;;4968341;28;20054;-75
2023/08/21 01:52:31;;;;;;;1.00;0.60;;;13.80;99.90;;;;;;4965201;28;20043;-76
2023/08/21 01:54:57;;;;;;;0.93;0.40;;;13.80;99.90;;;;;;4971069;28;20043;-75
2023/08/21 01:57:23;;;;;;;0.60;0.50;;;13.70;99.90;;;;;;4971538;28;20142;-75
2023/08/21 01:59:49;;;;;;;0.68;0.50;;;13.70;99.90;;;;;;4972254;28;20520;-75
2023/08/21 02:02:14;;;;;;;0.57;0.40;;;13.70;99.90;;;;;;4977368;28;20051;-75
2023/08/21 02:04:40;;;;;;;0.30;0.30;;;13.60;99.90;;;;;;4975289;28;20400;-75
2023/08/21 02:07:07;;;;;;;0.90;0.50;;;13.60;99.90;;;;;;4954486;28;20042;-75
2023/08/21 02:09:33;;;;;;;0.60;0.40;;;13.70;99.90;;;;;;4971157;28;20054;-75
2023/08/21 02:11:58;;;;;;;0.85;0.55;;;13.70;99.90;;;;;;4954847;28;20049;-75
2023/08/21 02:14:24;;;;;;;0.75;0.50;;;13.70;99.90;;;;;;4970849;28;20062;-75
2023/08/21 02:16:50;;;;;;;0.73;0.50;;;13.70;99.90;;;;;;4970488;28;20046;-75
2023/08/21 02:19:15;;;;;;;1.15;0.60;;;13.70;99.90;;;;;;4970768;28;20035;-75
2023/08/21 02:21:41;;;;;;;0.50;0.50;;;13.60;99.90;;;;;;4954028;28;20051;-75
2023/08/21 02:24:07;;;;;;;0.70;0.40;;;13.60;99.90;;;;;;4958207;28;20090;-75
2023/08/21 02:26:33;;;;;;;0.73;0.50;;;13.60;99.90;;;;;;4958633;28;20407;-75
2023/08/21 02:28:59;;;;;;;1.20;0.55;;;13.60;99.90;;;;;;4953238;28;20043;-75
2023/08/21 02:31:24;;;;;;;0.60;0.50;;;13.60;99.90;;;;;;4970733;28;20047;-75
2023/08/21 02:33:50;;;;;;;1.02;0.50;;;13.60;99.90;;;;;;4970432;28;20154;-75
2023/08/21 02:36:16;;;;;;;1.17;0.70;;;13.60;99.90;;;;;;4967254;28;20094;-75
2023/08/21 02:38:42;;;;;;;;;;;13.50;99.90;;;;;;4965764;28;20054;-75
2023/08/21 02:41:07;;;;;;;1.23;0.50;;;13.40;99.90;;;;;;4970543;28;19947;-75
2023/08/21 02:43:34;;;;;;;0.52;0.40;;;13.40;99.90;;;;;;4957976;28;20049;-75
2023/08/21 02:45:59;;;;;;;0.47;0.35;;;13.50;99.90;;;;;;4955545;28;20127;-75
2023/08/21 02:48:25;;;;;;;1.10;0.60;;;13.50;99.90;;;;;;4970346;28;20123;-75
2023/08/21 02:50:51;;;;;;;0.32;0.25;;;13.50;99.90;;;;;;4970287;28;20046;-76
2023/08/21 02:53:16;;;;;;;0.68;0.50;;;13.50;99.90;;;;;;4970459;28;20234;-76
2023/08/21 02:55:42;;;;;;;0.50;0.50;;;13.60;99.90;;;;;;4970497;28;20394;-75
2023/08/21 02:58:08;;;;;;;1.05;0.50;;;13.60;99.90;;;;;;4966986;28;20563;-76
2023/08/21 03:00:34;;;;;;;1.00;0.70;;;13.60;99.90;;;;;;4962918;28;20104;-76
2023/08/21 03:03:00;;;;;;;1.25;0.68;;;13.60;99.90;;;;;;4952050;28;20038;-75
2023/08/21 03:05:26;;;;;;;0.60;0.60;;;13.60;99.90;;;;;;4958044;28;20130;-76
2023/08/21 03:07:51;;;;;;;1.23;0.80;;;13.60;99.90;;;;;;4970220;28;20050;-76
2023/08/21 03:10:18;;;;;;;0.60;0.50;;;13.60;99.90;;;;;;4970599;28;20038;-76
2023/08/21 03:12:43;;;;;;;0.88;0.60;;;13.60;99.90;;;;;;4970363;28;20043;-76
2023/08/21 03:15:09;;;;;;;1.83;0.77;;;13.60;99.90;;;;;;4970160;28;20046;-76
2023/08/21 03:17:35;;;;;;;0.98;0.70;;;13.60;99.90;;;;;;4964811;28;20046;-76
2023/08/21 03:20:01;;;;;;;1.08;0.60;;;13.60;99.90;;;;;;4957201;28;20043;-76
2023/08/21 03:22:26;;;;;;;0.52;0.50;;;13.70;99.90;;;;;;4957358;28;20135;-76
2023/08/21 03:24:52;;;;;;;0.80;0.60;;;13.70;99.90;;;;;;4969790;28;20050;-76
2023/08/21 03:27:18;;;;;;;0.80;0.70;;;13.70;99.90;;;;;;4976348;28;20038;-76
2023/08/21 03:29:48;;;;;;;;;;;13.70;99.90;;;;;;4960534;28;20046;-76
2023/08/21 03:32:15;;;;;;;1.45;0.70;;;13.80;99.90;;;;;;5005625;28;19918;-76
2023/08/21 03:34:41;;;;;;;1.15;0.85;;;13.70;99.90;;;;;;4966515;28;20050;-76
2023/08/21 03:37:07;;;;;;;0.98;0.65;;;13.70;99.90;;;;;;4960205;28;20655;-76
2023/08/21 03:39:33;;;;;;;0.88;0.60;;;13.80;99.90;;;;;;4973124;28;20043;-76
2023/08/21 03:41:58;;;;;;;1.15;0.55;;;13.80;99.90;;;;;;4957347;29;20039;-76
2023/08/21 03:44:24;;;;;;;1.20;0.63;;;13.80;99.90;;;;;;4970358;28;20529;-76
2023/08/21 03:46:50;;;;;;;1.83;0.65;;;13.90;99.90;;;;;;4968534;28;20049;-76
2023/08/21 03:49:15;;;;;;;0.70;0.68;;;13.90;99.90;;;;;;4973709;28;20046;-76
2023/08/21 03:51:41;;;;;;;0.68;0.60;;;13.90;99.90;;;;;;4960461;28;20046;-76
2023/08/21 03:54:06;;;;;;;0.88;0.60;;;13.90;99.90;;;;;;4961054;28;20054;-76
2023/08/21 03:56:32;;;;;;;1.67;0.70;;;14.00;99.90;;;;;;4964200;28;20046;-76
2023/08/21 03:58:58;;;;;;;1.48;0.63;;;14.00;99.90;;;;;;4976303;28;20085;-76
2023/08/21 04:01:23;;;;;;;1.00;0.68;;;13.90;99.90;;;;;;4975992;28;20125;-76
2023/08/21 04:03:49;;;;;;;0.82;0.77;;;13.90;99.90;;;;;;4976199;28;20043;-76
2023/08/21 04:06:15;;;;;;;1.00;0.70;;;13.90;99.90;;;;;;4976046;28;20070;-76
2023/08/21 04:08:40;;;;;;;1.25;0.80;;;13.80;99.90;;;;;;4970725;28;20046;-75
2023/08/21 04:11:06;;;;;;;1.80;0.70;;;13.80;99.90;;;;;;4960089;28;20050;-75
2023/08/21 04:13:32;;;;;;;0.80;0.63;;;13.70;99.90;;;;;;4976043;28;20129;-75
2023/08/21 04:15:58;;;;;;;0.93;0.65;;;13.70;99.90;;;;;;4960096;28;20209;-75
2023/08/21 04:18:24;;;;;;;0.88;0.70;;;13.70;99.90;;;;;;4976313;28;20071;-75
2023/08/21 04:20:49;;;;;;;1.75;0.80;;;13.70;99.90;;;;;;4960473;28;20483;-76
2023/08/21 04:23:15;;;;;;;0.75;0.63;;;13.70;99.90;;;;;;4976001;28;20825;-76
2023/08/21 04:25:41;;;;;;;0.90;0.70;;;13.70;99.90;;;;;;4962411;28;20062;-76
2023/08/21 04:28:09;;;;;;;0.70;0.60;;;13.70;99.90;;;;;;4943781;28;20049;-76
2023/08/21 04:30:35;;;;;;;0.82;0.70;;;13.70;99.90;;;;;;4955819;28;20051;-75
2023/08/21 04:33:01;;;;;;;0.55;0.50;;;13.70;99.90;;;;;;4948860;28;20568;-76
2023/08/21 04:35:27;;;;;;;1.52;0.70;;;13.60;99.90;;;;;;4959134;28;20091;-76
2023/08/21 04:37:52;;;;;;;0.98;0.80;;;13.70;99.90;;;;;;4965497;28;20110;-76
2023/08/21 04:40:20;;;;;;;0.80;0.63;;;13.60;99.90;;;;;;4953713;28;20047;-76
2023/08/21 04:42:47;;;;;;;1.25;0.77;;;13.60;99.90;;;;;;4959566;28;20046;-76
2023/08/21 04:45:13;;;;;;;1.85;0.90;;;13.60;99.90;;;;;;4956634;28;20050;-76
2023/08/21 04:47:38;;;;;;;0.60;0.60;;;13.60;99.90;;;;;;4970204;28;20035;-76
2023/08/21 04:50:04;;;;;;;1.13;0.80;;;13.60;99.90;;;;;;4979710;28;20055;-75
2023/08/21 04:52:30;;;;;;;;;;;13.60;99.90;;;;;;4973166;28;20086;-75
2023/08/21 04:54:56;;;;;;;1.10;0.63;;;13.60;99.90;;;;;;4972328;28;19972;-75
2023/08/21 04:57:22;;;;;;;0.60;0.60;;;13.60;99.90;;;;;;4972466;28;20169;-76
2023/08/21 04:59:48;;;;;;;1.85;0.80;;;13.60;99.90;;;;;;4956339;28;20041;-76
2023/08/21 05:02:14;;;;;;;1.00;0.60;;;13.60;99.90;;;;;;4972593;28;20126;-76
2023/08/21 05:04:40;;;;;;;0.50;0.50;;;13.70;99.90;;;;;;4972622;28;20046;-76
2023/08/21 05:07:05;;;;;;;0.95;0.63;;;13.70;99.90;;;;;;4972436;28;20130;-76
2023/08/21 05:09:32;;;;;;;1.00;0.60;;;13.80;99.90;;;;;;4952967;29;20070;-76
2023/08/21 05:11:57;;;;;;;1.05;0.63;;;13.80;99.90;;;;;;4966618;28;20050;-76
2023/08/21 05:14:23;;;;;;;1.00;0.47;;;13.90;99.90;;;;;;4963154;28;20054;-76
2023/08/21 05:16:50;;;;;;;1.10;0.50;;;14.00;99.90;;;;;;4975505;28;20050;-76
2023/08/21 05:19:16;;;;;;;1.45;0.60;;;14.00;99.90;;;;;;4972327;28;20050;-76
2023/08/21 05:21:42;;;;;;;0.47;0.40;;;14.10;99.90;;;;;;4956516;28;20074;-77
2023/08/21 05:24:08;;;;;;;0.80;0.50;;;14.10;99.90;;;;;;4966040;28;20051;-77
2023/08/21 05:26:36;;;;;;;1.08;0.50;;;14.10;99.90;;;;;;4949369;28;20368;-76
2023/08/21 05:29:02;;;;;;;0.57;0.40;;;14.20;99.90;;;;;;4972018;28;20045;-76
2023/08/21 05:31:27;;;;;;;0.50;0.50;;;14.20;99.90;;;;;;4956308;28;20051;-76
2023/08/21 05:33:53;;;;;;;0.52;0.30;;;14.30;99.90;;;;;;4959417;28;20057;-76
2023/08/21 05:36:19;;;;;;;0.82;0.43;;;14.40;99.90;;;;;;4963218;28;20186;-76
2023/08/21 05:38:44;;;;;;;1.00;0.50;;;14.50;99.90;;;;;;4934851;28;20130;-76
2023/08/21 05:41:10;;;;;;;0.65;0.40;;;14.50;99.90;;;;;;4968472;28;20130;-76
2023/08/21 05:43:36;;;;;;;0.80;0.50;;;14.60;99.90;;;;;;4948986;28;20055;-76
2023/08/21 05:46:01;;;;;;;0.60;0.40;;;14.70;99.90;;;;;;4967023;28;20042;-76
2023/08/21 05:48:27;;;;;;;0.85;0.50;;;14.80;99.90;;;;;;4946919;28;20054;-75
2023/08/21 05:50:53;;;;;;;0.98;0.45;;;14.80;99.90;;;;;;4955659;28;20122;-75
2023/08/21 05:53:19;;;;;;;;;;;14.90;99.90;;;;;;4977279;28;20590;-75
2023/08/21 05:55:44;;;;;;;0.30;0.20;;;15.00;99.90;;;;;;4971304;28;19943;-75
2023/08/21 05:58:10;;;;;;;1.08;0.35;;;15.10;99.90;;;;;;4955687;28;20042;-75
2023/08/21 06:00:38;;;;;;;0.82;0.35;;;15.30;99.90;;;;;;4955447;28;20049;-75
2023/08/21 06:03:04;;;;;;;0.40;0.20;;;15.40;99.90;;;;;;4957853;28;20039;-75
2023/08/21 06:05:30;;;;;;;0.28;0.22;;;15.50;99.90;;;;;;4971140;28;20431;-75
2023/08/21 06:07:56;;;;;;;;;;;15.60;99.90;;;;;;4967818;28;20069;-76
2023/08/21 06:10:22;;;;;;;0.10;0.10;;;15.70;99.90;;;;;;4984480;28;19929;-76
2023/08/21 06:12:48;;;;;;;;;;;15.80;99.90;;;;;;4979609;28;20078;-75
2023/08/21 06:15:13;;;;;;;0.30;0.20;;;15.80;99.90;;;;;;5000071;28;19923;-76
2023/08/21 06:17:42;;;;;;;0.52;0.30;;;15.90;99.90;;;;;;4961079;28;20047;-76
2023/08/21 06:20:13;;;;;;;0.30;0.30;;;16.10;99.90;;;;;;4971185;28;20379;-76
2023/08/21 06:22:39;;;;;;;1.02;0.60;;;16.20;99.90;;;;;;4971317;28;20046;-75
2023/08/21 06:25:05;;;;;;;1.00;0.60;;;16.30;99.90;;;;;;4970253;28;20061;-75
2023/08/21 06:27:31;;;;;;;1.63;0.73;;;16.40;99.90;;;;;;4951779;28;20122;-76
2023/08/21 06:29:57;;;;;;;2.83;0.70;;;16.50;99.90;;;;;;4965231;28;20109;-76
2023/08/21 06:32:23;;;;;;;0.80;0.50;;;16.60;99.90;;;;;;4969350;28;20031;-76
2023/08/21 06:34:48;;;;;;;0.98;0.50;;;16.70;99.90;;;;;;4969894;28;20485;-76
2023/08/21 06:37:14;;;;;;;0.63;0.40;;;16.80;99.90;;;;;;4967177;28;20564;-76
2023/08/21 06:39:40;;;;;;;0.95;0.40;;;17.00;99.90;;;;;;4951618;28;20455;-76
2023/08/21 06:42:06;;;;;;;1.98;0.50;;;17.10;99.90;;;;;;4966931;28;20081;-76
2023/08/21 06:44:32;;;;;;;0.95;0.40;;;17.20;99.90;;;;;;4971949;28;20042;-76
2023/08/21 06:46:57;;;;;;;0.65;0.35;;;17.30;99.90;;;;;;4967847;28;20399;-77
2023/08/21 06:49:23;;;;;;;0.93;0.40;;;17.60;99.90;;;;;;4957300;28;20097;-76
2023/08/21 06:51:49;;;;;;;0.43;0.30;;;17.70;99.90;;;;;;4954465;28;20053;-76
2023/08/21 06:54:15;;;;;;;0.95;0.30;;;17.90;99.90;;;;;;4971737;28;20077;-77
2023/08/21 06:56:41;;;;;;;;;;;18.20;99.90;;;;;;4954794;28;20090;-76
2023/08/21 06:59:07;;;;;;;1.00;0.40;;;18.40;99.90;;;;;;4957005;28;19957;-76
2023/08/21 07:01:32;;;;;;;;;;;18.60;99.90;;;;;;4970967;28;20510;-76
2023/08/21 07:03:58;;;;;;;2.03;0.45;;;18.70;99.90;;;;;;4957849;28;19926;-76
2023/08/21 07:06:24;;;;;;;1.38;0.40;;;18.80;99.90;;;;;;4964836;28;20492;-76
2023/08/21 07:08:49;;;;;;;;;;;19.00;99.90;;;;;;4954755;28;20411;-76
2023/08/21 07:11:17;;;;;;;3.25;0.70;;;19.10;99.90;;;;;;4979919;28;19918;-76
2023/08/21 07:13:43;;;;;;;2.35;0.60;;;19.20;99.90;;;;;;4951131;28;20047;-75
2023/08/21 07:16:08;;;;;;;;;;;19.30;99.90;;;;;;4963324;28;20565;-76
2023/08/21 07:18:35;;;;;;;1.15;0.60;;;19.40;99.90;;;;;;4967294;28;19973;-76
2023/08/21 07:21:01;;;;;;;1.35;0.50;;;19.70;99.90;;;;;;4943550;28;20101;-76
2023/08/21 07:23:27;;;;;;;0.98;0.30;;;19.90;99.90;;;;;;4968956;28;20055;-76
2023/08/21 07:25:53;;;;;;;;;;;20.00;99.90;;;;;;4958490;28;20045;-76
2023/08/21 07:28:18;;;;;;;0.73;0.45;;;20.10;99.90;;;;;;4938847;28;20052;-76
2023/08/21 07:30:44;;;;;;;;;;;20.10;99.90;;;;;;4954316;28;20042;-77
2023/08/21 07:33:10;;;;;;;0.52;0.40;;;20.20;99.90;;;;;;5002701;28;19945;-77
2023/08/21 07:35:36;;;;;;;1.00;0.40;;;20.30;99.90;;;;;;4954742;28;20107;-77
2023/08/21 07:38:02;;;;;;;;;;;20.50;99.90;;;;;;4960298;28;20406;-77
2023/08/21 07:40:28;;;;;;;1.00;0.38;;;20.70;99.90;;;;;;5002899;28;19960;-77
2023/08/21 07:42:55;;;;;;;0.60;0.35;;;20.80;99.90;;;;;;4963171;28;20043;-77
2023/08/21 07:45:21;;;;;;;0.47;0.28;;;20.90;99.90;;;;;;4973729;28;20057;-77
2023/08/21 07:47:47;;;;;;;0.88;0.40;;;21.00;99.90;;;;;;4966899;28;20035;-77
2023/08/21 07:50:14;;;;;;;2.08;0.52;;;21.10;16.20;;;;;;4962094;28;20384;-77
2023/08/21 07:52:40;;;;;;;0.80;0.50;;;21.10;11.00;;;;;;4969937;28;20047;-77
2023/08/21 07:55:06;;;;;;;1.00;0.38;;;21.30;99.90;;;;;;4969844;28;20109;-77
2023/08/21 07:57:32;;;;;;;0.73;0.30;;;21.30;99.90;;;;;;4968506;28;20082;-77
2023/08/21 07:59:58;;;;;;;1.48;0.45;;;21.50;1.00;;;;;;4969718;28;20074;-75
2023/08/21 08:02:24;;;;;;;1.45;0.50;;;21.60;1.00;;;;;;4966708;28;20088;-75
2023/08/21 08:04:50;;;;;;;0.52;0.40;;;21.70;1.00;;;;;;4968227;28;20129;-75
2023/08/21 08:07:16;;;;;;;0.73;0.40;;;21.80;1.00;;;;;;4957382;28;20133;-75
2023/08/21 08:09:41;;;;;;;1.15;0.30;;;21.90;99.90;;;;;;4973308;28;20042;-75
2023/08/21 08:12:07;;;;;;;0.90;0.47;;;22.10;99.90;;;;;;4973223;28;20077;-75
2023/08/21 08:14:33;;;;;;;1.90;0.60;;;22.30;99.90;;;;;;4973026;28;20047;-75
2023/08/21 08:16:59;;;;;;;12.80;1.33;;;22.40;22.60;;;;;;4972620;28;20038;-75
2023/08/21 08:19:24;;;;;;;18.08;2.38;;;22.50;1.00;;;;;;4956765;28;20047;-75
2023/08/21 08:21:50;;;;;;;2.15;0.70;;;22.50;99.90;;;;;;4973455;28;20047;-77
2023/08/21 08:24:16;;;;;;;0.95;0.50;;;22.70;1.00;;;;;;4957330;28;20043;-75
2023/08/21 08:26:42;;;;;;;0.98;0.40;;;22.80;99.90;;;;;;4962974;28;20558;-77
2023/08/21 08:29:09;;;;;;;2.17;0.60;;;22.90;99.90;;;;;;4973258;28;20054;-75
2023/08/21 08:31:35;;;;;;;1.10;0.45;;;22.90;99.90;;;;;;4972841;28;20077;-76
2023/08/21 08:34:01;;;;;;;1.90;0.35;;;23.10;99.90;;;;;;4956757;28;20093;-75
2023/08/21 08:36:26;;;;;;;0.73;0.30;;;23.20;99.90;;;;;;4972646;28;20051;-75
2023/08/21 08:38:52;;;;;;;0.75;0.40;;;23.30;99.90;;;;;;4970690;28;20054;-75
2023/08/21 08:41:29;;;;;;;2.42;0.50;;;23.50;99.90;;;;;;4945354;28;20047;-75
2023/08/21 08:43:57;;;;;;;1.30;0.60;;;23.70;81.70;;;;;;4971172;28;20046;-75
2023/08/21 08:46:24;;;;;;;1.38;0.52;;;23.40;4.30;;;;;;4985787;28;20058;-75
2023/08/21 08:48:51;;;;;;;1.17;0.50;;;23.50;23.00;;;;;;4967874;28;20059;-75
2023/08/21 08:51:18;;;;;;;2.35;0.70;;;23.60;59.10;;;;;;4966780;28;20183;-75
2023/08/21 08:53:44;;;;;;;1.40;0.50;;;23.90;1.00;;;;;;4953051;28;20526;-75
2023/08/21 08:56:10;;;;;;;1.30;0.60;;;24.00;1.00;;;;;;4971269;28;20034;-75
2023/08/21 08:58:36;;;;;;;1.17;0.38;;;24.20;1.00;;;;;;4956456;28;20474;-75
2023/08/21 09:01:01;;;;;;;1.77;0.50;;;24.40;1.00;;;;;;4956196;28;20436;-75
2023/08/21 09:03:29;;;;;;;4.38;0.55;;;24.40;99.90;;;;;;4956049;28;20043;-75
2023/08/21 09:05:55;;;;;;;2.75;0.60;;;24.50;99.90;;;;;;4971645;28;20086;-75
2023/08/21 09:08:21;;;;;;;1.50;0.70;;;24.50;99.90;;;;;;4953013;28;20152;-75
2023/08/21 09:10:46;;;;;;;1.25;0.40;;;24.50;99.90;;;;;;4963670;28;20039;-75
2023/08/21 09:13:15;;;;;;;1.20;0.40;;;24.60;99.90;;;;;;4967025;28;20061;-75
2023/08/21 09:15:43;;;;;;;1.00;0.50;;;24.70;99.90;;;;;;4971572;28;20039;-75
2023/08/21 09:18:12;;;;;;;1.30;0.32;;;24.60;99.90;;;;;;4972191;28;20057;-75
2023/08/21 09:20:38;;;;;;;1.50;0.55;;;24.80;99.90;;;;;;4971548;28;20113;-75
2023/08/21 09:23:04;;;;;;;7.53;0.75;;;24.80;99.90;;;;;;4972190;28;20471;-75
2023/08/21 09:25:34;;;;;;;1.00;0.40;;;24.70;99.90;;;;;;4958235;28;20114;-75
2023/08/21 09:28:04;;;;;;;0.70;0.30;;;24.80;99.90;;;;;;4956106;28;20523;-75
2023/08/21 09:30:30;;;;;;;3.45;0.70;;;25.00;99.90;;;;;;4968879;28;20078;-75
2023/08/21 09:32:57;;;;;;;1.10;0.43;;;25.20;99.90;;;;;;4963403;28;20144;-75
2023/08/21 09:35:23;;;;;;;1.45;0.50;;;25.30;99.90;;;;;;4971509;28;20059;-75
2023/08/21 09:37:52;;;;;;;1.67;0.50;;;25.30;99.90;;;;;;4971691;28;20046;-75
2023/08/21 09:40:19;;;;;;;1.58;0.60;;;25.30;99.90;;;;;;4971696;28;20501;-75
2023/08/21 09:42:45;;;;;;;0.70;0.30;;;25.30;99.90;;;;;;4968550;28;20098;-75
2023/08/21 09:45:11;;;;;;;0.82;0.50;;;25.40;99.90;;;;;;4971928;28;20042;-75
2023/08/21 09:47:39;;;;;;;1.08;0.40;;;25.60;99.90;;;;;;4971502;28;20442;-75
2023/08/21 09:50:05;;;;;;;0.57;0.30;;;25.70;99.90;;;;;;4955417;28;20050;-75
2023/08/21 09:52:31;;;;;;;0.98;0.43;;;25.80;99.90;;;;;;4957706;28;20479;-75
2023/08/21 09:54:57;;;;;;;0.98;0.40;;;25.80;71.50;;;;;;4971151;28;20054;-75
2023/08/21 09:57:24;;;;;;;1.42;0.47;;;25.60;70.00;;;;;;4955205;28;20042;-75
2023/08/21 09:59:54;;;;;;;1.25;0.50;;;25.70;90.20;;;;;;4942049;28;20042;-75
2023/08/21 10:02:22;;;;;;;1.27;0.45;;;25.60;41.90;;;;;;4971051;28;20034;-75
2023/08/21 10:04:51;;;;;;;0.95;0.40;;;25.70;82.20;;;;;;4971265;28;20054;-75
2023/08/21 10:07:22;;;;;;;2.15;0.68;;;25.70;24.10;;;;;;4959102;28;20476;-75
2023/08/21 10:09:48;;;;;;;0.98;0.60;;;25.50;39.00;;;;;;4972389;28;20042;-75
2023/08/21 10:12:16;;;;;;;1.95;0.52;;;25.60;55.70;;;;;;4955138;28;20046;-75
2023/08/21 10:14:42;;;;;;;1.13;0.50;;;25.70;66.80;;;;;;4971007;28;20051;-75
2023/08/21 10:17:08;;;;;;;1.23;0.55;;;25.90;36.90;;;;;;4970927;28;20046;-75
2023/08/21 10:19:35;;;;;;;1.55;0.50;;;26.00;29.20;;;;;;4971066;28;20068;-75
2023/08/21 10:22:03;;;;;;;0.63;0.40;;;26.10;32.90;;;;;;4967863;28;20031;-75
2023/08/21 10:24:37;;;;;;;0.50;0.40;;;26.30;43.60;;;;;;4951564;29;20047;-75
2023/08/21 10:27:03;;;;;;;1.33;0.50;;;26.30;1.00;;;;;;4966779;28;20129;-75
2023/08/21 10:29:31;;;;;;;1.40;0.50;;;26.20;1.00;;;;;;4970771;28;20047;-76
2023/08/21 10:32:04;;;;;;;0.55;0.38;;;26.30;1.00;;;;;;4970861;28;20058;-75
2023/08/21 10:34:37;;;;;;;0.80;0.30;;;26.40;1.00;;;;;;4962931;28;20035;-75
2023/08/21 10:37:12;;;;;;;0.82;0.32;;;26.50;1.00;;;;;;4949828;28;20060;-75
2023/08/21 10:39:39;;;;;;;1.00;0.50;;;26.60;1.00;;;;;;4983551;28;20047;-76
2023/08/21 10:42:13;;;;;;;0.85;0.30;;;26.70;1.00;;;;;;4997066;28;20062;-76
2023/08/21 10:44:55;;;;;;;1.05;0.40;;;26.70;1.00;;;;;;4958544;28;20058;-76
2023/08/21 10:47:27;;;;;;;0.90;0.57;;;27.00;1.00;;;;;;4971224;28;20047;-76
2023/08/21 10:49:56;;;;;;;0.98;0.43;;;27.10;1.00;;;;;;4959953;28;20046;-76
2023/08/21 10:52:32;;;;;;;0.60;0.38;;;27.20;1.00;;;;;;4957027;28;20055;-76
2023/08/21 10:55:00;;;;;;;1.23;0.57;;;27.30;1.00;;;;;;4970384;28;20038;-75
2023/08/21 10:57:28;;;;;;;1.02;0.50;;;27.10;1.00;;;;;;4951167;28;20415;-76
2023/08/21 11:00:05;;;;;;;1.40;0.43;;;27.20;1.00;;;;;;4950965;28;20039;-76
2023/08/21 11:02:32;;;;;;;1.20;0.40;;;27.40;1.00;;;;;;4964404;28;20046;-76
2023/08/21 11:04:59;;;;;;;0.52;0.40;;;27.30;1.00;;;;;;4957761;28;20129;-76
2023/08/21 11:07:26;;;;;;;0.85;0.47;;;27.40;1.00;;;;;;4970322;28;20078;-76
2023/08/21 11:09:52;;;;;;;1.02;0.50;;;27.50;1.00;;;;;;4970048;28;20078;-76
2023/08/21 11:12:20;;;;;;;1.15;0.50;;;27.60;1.00;;;;;;4983153;28;20116;-76
2023/08/21 11:14:46;;;;;;;0.95;0.50;;;27.70;1.00;;;;;;4944683;29;20591;-76
2023/08/21 11:17:12;;;;;;;0.50;0.30;;;27.40;99.90;;;;;;4956428;28;20122;-76
2023/08/21 11:19:39;;;;;;;0.90;0.55;;;27.40;99.90;;;;;;4971486;28;20039;-76
2023/08/21 11:22:06;;;;;;;2.70;0.90;;;27.40;99.90;;;;;;4972093;28;20046;-76
2023/08/21 11:24:37;;;;;;;2.20;0.60;;;26.90;99.90;;;;;;4970257;28;20061;-76
2023/08/21 11:27:06;;;;;;;1.35;0.63;;;27.00;99.90;;;;;;4954035;28;20055;-76
2023/08/21 11:29:43;;;;;;;0.88;0.47;;;26.80;99.90;;;;;;4951105;28;20047;-76
2023/08/21 11:32:09;;;;;;;1.73;0.65;;;26.90;1.00;;;;;;4964228;28;20498;-77
2023/08/21 11:34:36;;;;;;;2.53;0.75;;;26.90;99.90;;;;;;4956244;28;20062;-76
2023/08/21 11:37:02;;;;;;;1.52;0.80;;;27.10;99.90;;;;;;4981116;28;20050;-76
2023/08/21 11:39:39;;;;;;;1.20;0.70;;;27.20;99.90;;;;;;4966595;28;20105;-76
2023/08/21 11:42:11;;;;;;;1.30;0.65;;;27.50;99.90;;;;;;4979159;28;20039;-78
2023/08/21 11:44:47;;;;;;;1.02;0.50;;;27.20;99.90;;;;;;4961949;28;20516;-78
2023/08/21 11:47:14;;;;;;;2.58;0.60;;;27.00;99.90;;;;;;4975339;28;20407;-76
2023/08/21 11:49:44;;;;;;;0.98;0.50;;;27.10;99.90;;;;;;4970607;28;20507;-77
2023/08/21 11:52:11;;;;;;;6.35;0.82;;;27.30;99.90;;;;;;4967524;28;20052;-78
2023/08/21 11:54:37;;;;;;;3.45;0.77;;;27.20;99.90;;;;;;4973810;28;20116;-77
2023/08/21 11:57:08;;;;;;;2.38;0.60;;;27.40;99.90;;;;;;4941953;28;20534;-77
2023/08/21 11:59:34;;;;;;;2.20;0.60;;;27.50;99.90;;;;;;4989776;28;20050;-77
2023/08/21 12:02:00;;;;;;;1.75;0.75;;;27.60;99.90;;;;;;4973471;28;20050;-77
2023/08/21 12:04:26;;;;;;;1.83;0.70;;;27.40;99.90;;;;;;4957304;28;20063;-75
2023/08/21 12:06:52;;;;;;;5.70;1.00;;;27.40;99.90;;;;;;4962525;28;20042;-75
2023/08/21 12:09:21;;;;;;;5.28;1.23;;;27.40;99.90;;;;;;4954387;29;20077;-75
2023/08/21 12:11:47;;;;;;;2.13;0.90;;;27.50;99.90;;;;;;4967659;28;20478;-76
2023/08/21 12:14:12;;;;;;;2.88;0.95;;;27.50;99.90;;;;;;4953989;28;20051;-75
2023/08/21 12:16:38;;;;;;;1.90;0.90;;;27.20;99.90;;;;;;4968495;28;20097;-75
2023/08/21 12:19:04;;;;;;;1.73;0.52;;;27.40;99.90;;;;;;4960798;28;20479;-75
2023/08/21 12:21:29;;;;;;;2.35;0.80;;;27.70;99.90;;;;;;4973134;28;20039;-75
2023/08/21 12:23:55;;;;;;;1.20;0.60;;;27.60;99.90;;;;;;4956914;28;20117;-75
2023/08/21 12:26:21;;;;;;;0.70;0.50;;;27.60;99.90;;;;;;4969786;28;20118;-75
2023/08/21 12:28:50;;;;;;;1.67;0.77;;;27.80;99.90;;;;;;4967225;28;20061;-75
2023/08/21 12:31:16;;;;;;;2.85;1.20;;;27.80;99.90;;;;;;4963179;28;20125;-75
2023/08/21 12:33:42;;;;;;;1.77;0.70;;;27.00;99.90;;;;;;4972697;28;20082;-76
2023/08/21 12:36:10;;;;;;;1.25;0.73;;;26.80;99.90;;;;;;4960652;28;20063;-75
2023/08/21 12:38:36;;;;;;;1.98;0.80;;;27.10;99.90;;;;;;4972683;28;20078;-75
2023/08/21 12:41:02;;;;;;;2.00;0.73;;;27.20;99.90;;;;;;4973197;28;20081;-75
2023/08/21 12:43:28;;;;;;;1.50;0.82;;;27.40;99.90;;;;;;4972661;28;20105;-75
2023/08/21 12:45:55;;;;;;;2.28;0.70;;;27.40;99.90;;;;;;4972721;28;20039;-76
2023/08/21 12:48:21;;;;;;;1.27;0.63;;;27.70;99.90;;;;;;4972646;28;20134;-76